Terminal Aerodrome Forecast
Issued by NWS

Home | Current Version | Previous Version | Text Only | Print | Product List | Glossary Off
Versions: 1 2 3 4 5 6 7 8 9 10 11 12 13 14 15 16 17 18 19 20 21 22 23 24

000
FTUS43 KBIS 092038 AAA
TAFMOT
TAF AMD
KMOT 092038Z 0921/1018 27015G20KT P6SM SCT140 SCT200
     FM092300 29015KT P6SM FEW250 WS020/31045KT
     FM100500 29013KT P6SM BKN120
     FM101200 28011KT P6SM SCT250=

USA.gov is the U.S. government's official web portal to all federal, state and local government web resources and services.